KMSP/MSP METAR and TAF weather

Enter ICAO airport designator
Station Type Date Time Source
KMSP METAR 2022/05/23 13:53 UTC NOAA

KMSP 231353Z 22004KT 10SM SCT080 SCT140 12/M01 A3039 RMK AO2 SLP292 T01221006


Station Type Date Time Source
KMSP Decoded METAR 2022/05/23 13:53 UTC NOAA

MINNEAPOLIS-ST PAUL INTERNATIONAL , MN, United States (KMSP) 44-52N 93-13W 265M
May 23, 2022 - 09:53 AM EDT / 2022.05.23 1353 UTC
Wind: from the SW (220 degrees) at 5 MPH (4 KT):0
Visibility: 10 mile(s):0
Sky conditions: partly cloudy
Temperature: 54.0 F (12.2 C)
Dew Point: 30.9 F (-0.6 C)
Relative Humidity: 41%
Pressure (altimeter): 30.39 in. Hg (1029 hPa)
ob: KMSP 231353Z 22004KT 10SM SCT080 SCT140 12/M01 A3039 RMK AO2 SLP292 T01221006
cycle: 14

Station Type Date Time Source
KMSP TAF 2022/05/23 12:36 UTC NOAA

TAF KMSP 231133Z 2312/2418 VRB03KT P6SM BKN080
FM231600 16007KT P6SM SCT080 BKN150
FM240000 14005KT P6SM BKN070

Example: see airport list